Time;durP1;ratioP1;P1;durP2;ratioP2;P2;SDS_P1;SDS_P2;PMS_P1;PMS_P2;Temp;Humidity;BMP_temperature;BMP_pressure;BME280_temperature;BME280_humidity;BME280_pressure;Samples;Min_cycle;Max_cycle;Signal;HPM_P1;HPM_P2
2022/05/17 00:00:23;;;;;;;;;;;13.00;1.40;;;13.77;100.00;95814.83;655593;216;24818;-75
2022/05/17 00:03:04;;;;;;;;;;;13.00;1.40;;;13.76;100.00;95811.09;655802;216;25492;-75
2022/05/17 00:05:46;;;;;;;;;;;13.00;1.40;;;13.73;100.00;95809.50;652298;212;24852;-75
2022/05/17 00:08:27;;;;;;;;;;;12.90;1.40;;;13.94;100.00;95809.20;652042;216;24850;-76
2022/05/17 00:11:10;;;;;;;;;;;13.20;1.40;;;14.00;100.00;95813.95;650262;216;25184;-76
2022/05/17 00:13:50;;;;;;;;;;;13.20;1.40;;;13.95;100.00;95815.09;651443;216;24867;-76
2022/05/17 00:16:31;;;;;;;;;;;13.10;1.40;;;13.94;100.00;95814.44;651463;216;24911;-76
2022/05/17 00:19:13;;;;;;;;;;;13.10;1.40;;;13.96;100.00;95815.33;654144;216;24813;-76
2022/05/17 00:22:00;;;;;;;;;;;13.10;1.40;;;14.01;100.00;95813.16;657383;212;24733;-82
2022/05/17 00:24:43;;;;;;;;;;;13.20;1.40;;;13.99;100.00;95813.94;652269;212;24907;-82
2022/05/17 00:27:26;;;;;;;;;;;13.20;1.40;;;14.03;100.00;95809.61;623276;226;25098;-75
2022/05/17 00:30:08;;;;;;;;;;;13.20;1.40;;;14.03;100.00;95812.56;656193;216;24823;-76
2022/05/17 00:32:49;;;;;;;;;;;13.20;1.40;;;14.07;100.00;95813.36;653643;216;24811;-75
2022/05/17 00:35:51;;;;;;;0.75;0.70;;;13.30;1.40;;;14.08;100.00;95809.97;619493;226;31815;-75
2022/05/17 00:38:36;;;;;;;1.10;0.70;;;13.20;1.40;;;14.09;100.00;95807.87;646944;212;31522;-75
2022/05/17 00:41:18;;;;;;;3.30;1.30;;;13.20;1.40;;;14.08;100.00;95807.61;647716;216;32128;-75
2022/05/17 00:47:05;;;;;;;1.00;0.90;;;13.30;1.40;;;14.13;100.00;95802.53;615257;226;31973;-76
2022/05/17 00:49:57;;;;;;;1.10;0.80;;;13.30;1.40;;;14.18;100.00;95804.30;644497;212;31502;-76
2022/05/17 00:53:41;;;;;;;1.67;0.80;;;13.30;1.40;;;14.14;100.00;95801.23;647307;216;31464;-76
2022/05/17 00:56:22;;;;;;;0.90;0.70;;;13.30;1.40;;;14.17;100.00;95802.03;647907;216;31584;-76
2022/05/17 00:59:04;;;;;;;1.30;1.10;;;13.40;1.40;;;14.16;100.00;95800.14;645376;216;42445;-76
2022/05/17 01:01:45;;;;;;;0.75;0.70;;;13.30;1.40;;;14.17;100.00;95801.15;645488;216;32081;-76
2022/05/17 01:04:27;;;;;;;1.25;0.98;;;13.30;1.40;;;14.18;100.00;95803.37;644428;212;42811;-75
2022/05/17 01:07:12;;;;;;;0.90;0.68;;;13.30;1.40;;;14.14;100.00;95803.65;645394;216;42365;-75
2022/05/17 01:09:54;;;;;;;0.70;0.70;;;13.30;1.40;;;14.14;100.00;95807.63;638098;216;31659;-75
2022/05/17 01:16:43;;;;;;;1.40;0.70;;;13.30;1.40;;;14.16;100.00;95805.94;650326;216;31502;-76
2022/05/17 01:19:25;;;;;;;0.90;0.90;;;13.30;1.40;;;14.14;100.00;95803.44;647294;216;32184;-75
2022/05/17 01:22:06;;;;;;;0.70;0.47;;;13.30;1.40;;;14.16;100.00;95799.60;646731;216;42623;-75
2022/05/17 01:24:48;;;;;;;1.02;0.80;;;13.20;1.40;;;14.13;100.00;95799.25;619466;226;31899;-76
2022/05/17 01:27:40;;;;;;;0.80;0.55;;;13.20;1.40;;;14.12;100.00;95802.00;618697;226;42513;-76
2022/05/17 01:30:22;;;;;;;1.08;0.60;;;13.10;1.40;;;14.03;100.00;95795.99;647718;216;31623;-76
2022/05/17 01:35:52;;;;;;;0.60;0.60;;;13.20;1.40;;;14.04;100.00;95799.78;643994;216;31566;-76
2022/05/17 01:38:33;;;;;;;0.80;0.70;;;13.10;1.40;;;14.00;100.00;95799.56;647790;216;31496;-76
2022/05/17 01:41:15;;;;;;;2.75;0.73;;;13.10;1.40;;;14.01;100.00;95795.73;649983;216;42097;-76
2022/05/17 01:46:31;;;;;;;0.95;0.88;;;13.10;1.40;;;14.04;100.00;95794.55;645617;216;33522;-76
2022/05/17 01:51:51;;;;;;;1.50;0.90;;;13.10;1.40;;;14.02;100.00;95798.38;650008;216;31498;-76
2022/05/17 01:54:32;;;;;;;0.83;0.80;;;13.10;1.40;;;14.02;100.00;95789.70;619270;222;31817;-76
2022/05/17 01:57:14;;;;;;;1.20;0.60;;;13.10;1.40;;;14.00;100.00;95795.85;642227;216;31547;-76
2022/05/17 01:59:56;;;;;;;1.37;1.05;;;13.10;1.40;;;13.93;100.00;95798.15;649002;216;42123;-76
2022/05/17 02:02:38;;;;;;;0.50;0.50;;;13.00;1.40;;;13.88;100.00;95795.52;647337;216;40038;-76
2022/05/17 02:05:20;;;;;;;1.20;0.90;;;13.00;1.40;;;13.88;100.00;95787.84;645118;216;32088;-76
2022/05/17 02:08:02;;;;;;;1.35;1.15;;;12.90;1.40;;;13.96;100.00;95786.94;644274;216;42446;-77
2022/05/17 02:10:44;;;;;;;0.80;0.43;;;13.00;1.40;;;14.00;100.00;95790.36;620672;222;31864;-77
2022/05/17 02:16:03;;;;;;;0.70;0.70;;;13.00;1.40;;;13.88;100.00;95783.00;648220;216;42166;-75
2022/05/17 02:18:45;;;;;;;0.80;0.60;;;13.00;1.40;;;13.82;100.00;95785.63;648106;216;42098;-75
2022/05/17 02:21:27;;;;;;;1.20;1.10;;;12.90;1.40;;;13.77;100.00;95781.94;645604;216;34146;-76
2022/05/17 02:24:11;;;;;;;0.70;0.57;;;12.80;1.40;;;13.70;100.00;95781.80;647629;216;31517;-76
2022/05/17 02:26:53;;;;;;;0.70;0.60;;;12.70;1.40;;;13.69;100.00;95781.45;647738;216;33623;-76
2022/05/17 02:29:35;;;;;;;1.00;0.90;;;12.80;1.40;;;13.66;100.00;95782.07;633017;222;31706;-76
2022/05/17 02:32:17;;;;;;;0.87;0.80;;;12.80;1.40;;;13.62;100.00;95787.09;647840;216;32259;-76
2022/05/17 02:35:51;;;;;;;1.40;0.85;;;12.70;1.40;;;13.54;100.00;95788.72;622426;222;32346;-76
2022/05/17 02:38:33;;;;;;;1.62;1.05;;;12.70;1.40;;;13.64;100.00;95794.73;641152;219;42744;-76
2022/05/17 02:41:17;;;;;;;1.45;0.93;;;12.70;1.40;;;13.66;100.00;95795.36;646960;216;37343;-76
2022/05/17 02:43:56;;;;;;;2.08;0.95;;;12.70;1.40;;;13.73;100.00;95798.92;645465;216;32020;-76
2022/05/17 02:46:38;;;;;;;1.23;1.12;;;12.80;1.40;;;13.66;100.00;95798.14;649470;216;32049;-76
2022/05/17 02:49:20;;;;;;;3.60;1.45;;;12.80;1.40;;;13.66;100.00;95798.66;648814;215;31695;-75
2022/05/17 02:52:02;;;;;;;1.40;0.80;;;12.70;1.40;;;13.60;100.00;95801.48;644526;212;42185;-76
2022/05/17 02:54:44;;;;;;;1.55;0.88;;;12.70;1.40;;;13.55;100.00;95800.56;620842;226;37896;-76
2022/05/17 02:57:26;;;;;;;1.30;0.73;;;12.60;1.40;;;13.38;100.00;95803.67;647835;216;35948;-76
2022/05/17 03:00:08;;;;;;;1.05;0.73;;;12.50;1.40;;;13.30;100.00;95802.50;644317;215;32217;-76
2022/05/17 03:02:50;;;;;;;0.50;0.40;;;12.50;1.40;;;13.29;100.00;95802.92;647817;216;32295;-76
2022/05/17 03:05:35;;;;;;;1.80;0.90;;;12.40;1.40;;;13.25;100.00;95802.86;646190;212;31471;-76
2022/05/17 03:08:20;;;;;;;0.73;0.50;;;12.30;1.40;;;13.22;100.00;95804.03;642532;212;32772;-76
2022/05/17 03:11:01;;;;;;;0.90;0.52;;;12.40;1.40;;;13.13;100.00;95802.84;647089;212;31570;-76
2022/05/17 03:13:45;;;;;;;1.00;0.70;;;12.30;1.40;;;13.16;100.00;95801.03;651619;216;31630;-82
2022/05/17 03:19:04;;;;;;;1.25;0.75;;;12.10;1.40;;;13.08;100.00;95803.05;647343;216;31518;-76
2022/05/17 03:21:45;;;;;;;1.50;0.50;;;12.00;1.40;;;13.07;100.00;95804.21;649835;212;31969;-77
2022/05/17 03:24:31;;;;;;;3.58;1.12;;;12.00;1.40;;;13.10;100.00;95807.56;647658;216;31644;-77
2022/05/17 03:27:11;;;;;;;1.50;1.20;;;12.00;1.40;;;13.16;100.00;95814.27;645798;212;31615;-76
2022/05/17 03:29:53;;;;;;;1.00;0.75;;;12.10;1.40;;;13.07;100.00;95811.23;647243;212;31817;-76
2022/05/17 03:32:35;;;;;;;3.20;1.00;;;11.90;1.40;;;12.99;100.00;95811.89;630400;222;31722;-76
2022/05/17 03:35:51;;;;;;;1.00;0.90;;;11.80;1.40;;;13.00;100.00;95819.17;646426;216;31561;-76
2022/05/17 03:38:33;;;;;;;1.50;0.82;;;11.80;1.40;;;13.02;100.00;95820.70;646030;216;31537;-76
2022/05/17 03:41:15;;;;;;;1.27;0.62;;;11.90;1.40;;;12.97;100.00;95820.38;652310;216;31463;-76
2022/05/17 03:43:57;;;;;;;0.97;0.90;;;11.90;1.40;;;12.98;100.00;95822.55;650760;216;31546;-76
2022/05/17 03:49:13;;;;;;;0.95;0.95;;;11.90;1.40;;;12.98;100.00;95823.95;644467;212;31679;-76
2022/05/17 03:51:55;;;;;;;1.08;0.90;;;11.90;1.40;;;12.94;100.00;95831.06;646114;216;32454;-76
2022/05/17 03:54:37;;;;;;;0.60;0.50;;;11.90;1.40;;;12.94;100.00;95831.34;647145;216;32160;-77
2022/05/17 03:57:18;;;;;;;1.60;0.97;;;11.90;1.40;;;12.90;100.00;95831.44;617040;226;32184;-76
2022/05/17 04:00:06;;;;;;;0.82;0.80;;;11.90;1.40;;;12.92;100.00;95830.19;647063;216;31512;-76
2022/05/17 04:02:45;;;;;;;1.20;0.70;;;11.90;1.40;;;12.92;100.00;95831.40;649352;216;31559;-76
2022/05/17 04:05:30;;;;;;;1.40;0.90;;;11.90;1.40;;;12.92;100.00;95836.06;649799;212;32145;-76
2022/05/17 04:08:11;;;;;;;1.60;0.93;;;11.90;1.40;;;12.93;100.00;95831.82;644225;212;31635;-76
2022/05/17 04:10:53;;;;;;;1.10;0.80;;;11.90;1.40;;;12.95;100.00;95836.38;621018;222;31994;-76
2022/05/17 04:13:35;;;;;;;1.50;0.90;;;11.90;1.40;;;12.95;100.00;95837.97;619606;222;31992;-78
2022/05/17 04:16:16;;;;;;;0.80;0.60;;;11.90;1.40;;;12.93;100.00;95837.14;646995;216;32543;-78
2022/05/17 04:18:58;;;;;;;1.35;0.57;;;11.90;1.40;;;12.96;100.00;95843.22;621386;222;32419;-76
2022/05/17 04:21:40;;;;;;;1.65;1.00;;;11.90;1.40;;;12.98;100.00;95846.39;646736;212;31952;-76
2022/05/17 04:24:25;;;;;;;0.85;0.52;;;12.00;1.40;;;12.98;100.00;95846.92;647223;216;31557;-76
2022/05/17 04:27:06;;;;;;;1.00;0.60;;;12.00;1.40;;;13.05;100.00;95854.18;647245;212;31496;-76
2022/05/17 04:29:48;;;;;;;1.10;0.60;;;12.00;1.40;;;13.08;100.00;95851.05;644959;216;35016;-76
2022/05/17 04:32:30;;;;;;;1.75;1.08;;;12.00;1.40;;;13.13;100.00;95849.14;645293;216;31541;-77
2022/05/17 04:35:51;;;;;;;1.58;1.00;;;12.10;1.40;;;13.17;100.00;95858.61;644771;216;31515;-76
2022/05/17 04:38:33;;;;;;;1.00;0.60;;;12.00;1.40;;;13.21;100.00;95858.29;645712;216;31545;-76
2022/05/17 04:41:15;;;;;;;1.40;0.50;;;12.10;1.40;;;13.20;100.00;95861.61;644655;216;31848;-76
2022/05/17 04:43:57;;;;;;;0.60;0.55;;;12.20;1.40;;;13.24;100.00;95861.06;649738;212;31604;-76
2022/05/17 04:46:42;;;;;;;0.90;0.75;;;12.20;1.40;;;13.21;100.00;95863.96;646374;216;42159;-76
2022/05/17 04:49:23;;;;;;;10.45;1.05;;;12.20;1.40;;;13.17;100.00;95863.84;645696;216;31552;-76
2022/05/17 04:52:08;;;;;;;0.88;0.80;;;12.10;1.40;;;13.23;100.00;95865.06;648254;216;31848;-76
2022/05/17 04:54:50;;;;;;;1.27;0.70;;;12.10;1.40;;;13.27;100.00;95870.13;645805;216;42204;-76
2022/05/17 04:57:32;;;;;;;1.50;0.60;;;12.20;1.40;;;13.26;100.00;95869.56;645283;216;31566;-76
2022/05/17 05:00:15;;;;;;;0.90;0.90;;;12.20;1.40;;;13.36;100.00;95868.00;618664;226;43035;-76
2022/05/17 05:13:29;;;;;;;2.28;0.77;;;12.40;1.40;;;13.34;100.00;95874.84;649002;216;31453;-78
2022/05/17 05:16:16;;;;;;;2.90;0.80;;;12.40;1.40;;;13.38;100.00;95873.98;646953;216;31875;-79
2022/05/17 05:18:58;;;;;;;1.63;1.43;;;12.40;1.40;;;13.43;100.00;95874.16;647190;212;31518;-77
2022/05/17 05:21:46;;;;;;;1.00;0.70;;;12.40;1.40;;;13.51;100.00;95875.69;647591;216;35037;-75
2022/05/17 05:24:34;;;;;;;0.80;0.70;;;12.60;1.40;;;13.70;100.00;95880.48;648068;215;32990;-77
2022/05/17 05:27:19;;;;;;;1.50;1.00;;;12.70;1.40;;;13.92;100.00;95879.31;619491;222;32431;-76
2022/05/17 05:30:03;;;;;;;5.85;1.58;;;13.00;1.40;;;14.32;100.00;95881.42;645513;216;40241;-77
2022/05/17 05:32:50;;;;;;;2.97;1.00;;;13.30;1.40;;;14.60;100.00;95882.48;642312;215;31544;-75
2022/05/17 05:35:54;;;;;;;1.60;1.50;;;13.70;1.40;;;14.81;100.00;95885.91;647729;212;31547;-76
2022/05/17 05:38:41;;;;;;;1.40;1.00;;;13.90;1.40;;;15.02;100.00;95885.38;646483;212;31582;-77
2022/05/17 05:41:24;;;;;;;2.70;1.00;;;14.10;1.40;;;15.11;100.00;95886.35;647175;216;31577;-77
2022/05/17 05:44:06;;;;;;;3.60;1.12;;;14.30;1.40;;;15.24;100.00;95896.82;647932;212;31581;-76
2022/05/17 05:46:50;;;;;;;1.33;1.23;;;14.40;1.40;;;15.37;100.00;95897.94;647116;216;31552;-73
2022/05/17 05:50:50;;;;;;;1.40;1.00;;;14.60;1.40;;;15.57;100.00;95905.70;649791;216;31572;-74
2022/05/17 05:53:32;;;;;;;3.00;1.40;;;14.70;1.40;;;15.68;100.00;95904.41;645046;216;31863;-76
2022/05/17 05:56:16;;;;;;;1.98;1.67;;;14.60;1.40;;;15.73;100.00;95912.92;646460;216;31570;-76
2022/05/17 05:59:04;;;;;;;1.10;1.00;;;14.60;1.40;;;15.67;100.00;95908.59;647346;212;31884;-75
2022/05/17 06:01:46;;;;;;;0.90;0.80;;;14.70;1.40;;;15.71;100.00;95910.59;646908;214;31613;-75
2022/05/17 06:04:28;;;;;;;2.12;1.10;;;14.70;1.40;;;15.80;100.00;95914.28;645271;215;31538;-76
2022/05/17 06:07:10;;;;;;;2.28;1.10;;;14.70;1.40;;;15.74;100.00;95915.80;622817;226;31855;-75
2022/05/17 06:09:55;;;;;;;1.10;1.00;;;14.70;1.40;;;15.79;100.00;95911.52;639894;216;32163;-75
2022/05/17 06:12:37;;;;;;;1.35;1.20;;;14.80;1.40;;;15.89;100.00;95907.92;648989;212;31569;-76
2022/05/17 06:15:25;;;;;;;1.12;0.93;;;15.00;1.40;;;15.97;100.00;95912.12;649244;216;32179;-79
2022/05/17 06:18:07;;;;;;;3.00;1.17;;;15.10;1.40;;;16.12;100.00;95913.37;647422;216;31541;-79
2022/05/17 06:20:55;;;;;;;1.45;0.90;;;15.30;1.40;;;16.16;100.00;95915.50;647011;216;31515;-76
2022/05/17 06:23:43;;;;;;;1.10;0.80;;;15.30;1.40;;;16.17;100.00;95916.78;646932;216;31520;-77
2022/05/17 06:26:25;;;;;;;1.58;1.48;;;15.40;1.40;;;16.29;100.00;95913.28;620745;226;31888;-77
2022/05/17 06:29:07;;;;;;;1.67;1.40;;;15.50;1.40;;;16.39;100.00;95918.61;646058;212;31508;-79
2022/05/17 06:31:49;;;;;;;3.20;1.40;;;15.60;1.40;;;16.43;100.00;95919.17;647750;216;31557;-76
2022/05/17 06:35:57;;;;;;;3.00;1.50;;;15.70;1.40;;;16.46;100.00;95914.13;648071;216;31555;-75
2022/05/17 06:38:46;;;;;;;2.55;1.65;;;15.60;1.40;;;16.60;100.00;95918.73;647822;216;42167;-77
2022/05/17 06:41:29;;;;;;;1.60;1.45;;;15.70;1.40;;;16.74;100.00;95925.42;648272;215;32336;-76
2022/05/17 06:44:14;;;;;;;1.87;1.60;;;16.00;1.40;;;16.86;100.00;95923.31;647663;216;31528;-75
2022/05/17 06:46:56;;;;;;;1.75;1.55;;;16.20;1.40;;;16.89;100.00;95922.33;648305;212;31493;-77
2022/05/17 06:49:39;;;;;;;1.85;1.40;;;16.10;1.40;;;16.92;100.00;95924.82;651037;216;31558;-76
2022/05/17 06:52:24;;;;;;;1.40;1.02;;;16.10;1.40;;;17.06;100.00;95921.78;618780;226;32015;-79
2022/05/17 06:55:11;;;;;;;1.80;1.48;;;16.20;1.40;;;17.23;100.00;95921.09;644012;212;31502;-76
2022/05/17 06:57:54;;;;;;;2.37;1.60;;;16.40;1.40;;;17.27;100.00;95927.52;648271;216;31632;-77
2022/05/17 07:00:38;;;;;;;3.10;2.08;;;16.30;1.40;;;17.44;100.00;95928.51;649039;212;31802;-76
2022/05/17 07:03:20;;;;;;;3.03;2.03;;;16.50;1.40;;;17.64;100.00;95932.20;648568;216;31525;-76
2022/05/17 07:06:08;;;;;;;2.20;1.52;;;16.70;1.40;;;17.92;100.00;95930.80;641791;217;31633;-77
2022/05/17 07:08:49;;;;;;;2.20;1.93;;;16.90;1.40;;;18.11;100.00;95933.80;636069;212;34636;-77
2022/05/17 07:14:30;;;;;;;2.40;2.10;;;17.30;1.40;;;18.35;100.00;95939.16;625537;222;31855;-77
2022/05/17 07:17:15;;;;;;;3.40;2.12;;;17.20;1.40;;;18.35;100.00;95945.75;620171;222;31931;-77
2022/05/17 07:19:55;;;;;;;2.08;1.60;;;17.20;1.40;;;18.60;100.00;95941.63;648750;212;32670;-77
2022/05/17 07:22:37;;;;;;;3.95;1.60;;;17.30;1.40;;;18.97;100.00;95941.14;646933;216;31582;-77
2022/05/17 07:25:19;;;;;;;2.12;1.92;;;17.60;1.40;;;19.33;100.00;95940.20;650258;216;31598;-76
2022/05/17 07:28:07;;;;;;;2.42;1.80;;;18.00;1.40;;;19.42;100.00;95942.02;646414;216;31549;-76
2022/05/17 07:35:53;;;;;;;3.33;2.35;;;17.80;1.40;;;19.20;100.00;95942.19;637044;217;32218;-76
2022/05/17 07:38:33;;;;;;;2.08;1.87;;;17.90;1.40;;;19.15;100.00;95940.39;648863;212;31700;-77
2022/05/17 07:41:16;;;;;;;2.80;2.50;;;17.70;1.40;;;19.19;100.00;95940.61;646340;212;31767;-77
2022/05/17 07:43:58;;;;;;;2.70;2.00;;;17.80;1.40;;;19.45;100.00;95945.83;619152;222;32202;-76
2022/05/17 07:46:40;;;;;;;2.30;1.80;;;18.10;1.40;;;19.49;100.00;95949.06;648418;216;42190;-77
2022/05/17 07:49:28;;;;;;;2.08;1.83;;;18.10;1.40;;;19.60;100.00;95950.08;645494;216;31746;-76
2022/05/17 07:52:12;;;;;;;5.73;2.27;;;18.00;1.40;;;19.36;100.00;95946.44;641762;218;31517;-76
2022/05/17 07:54:53;;;;;;;3.50;2.33;;;17.90;1.40;;;19.31;100.00;95946.67;619408;226;31953;-77
2022/05/17 07:57:35;;;;;;;2.10;1.90;;;17.90;1.40;;;19.11;100.00;95946.77;648758;216;42202;-77
2022/05/17 08:00:17;;;;;;;2.67;2.15;;;17.70;1.40;;;19.33;100.00;95944.95;645974;212;31557;-73
2022/05/17 08:02:58;;;;;;;1.83;1.70;;;18.20;1.40;;;19.15;100.00;95942.03;646155;212;31749;-73
2022/05/17 08:05:40;;;;;;;3.28;2.30;;;18.10;1.40;;;20.00;100.00;95945.05;650143;216;31580;-73
2022/05/17 08:08:22;;;;;;;3.70;2.40;;;18.70;1.40;;;20.53;100.00;95937.22;647925;212;32670;-74
2022/05/17 08:11:05;;;;;;;2.70;1.87;;;19.20;1.40;;;20.48;100.00;95942.26;649625;216;42153;-74
2022/05/17 08:13:46;;;;;;;2.65;2.10;;;19.00;1.40;;;20.43;100.00;95943.09;651247;216;31545;-73
2022/05/17 08:16:27;;;;;;;4.40;2.17;;;18.90;1.40;;;20.12;100.00;95939.95;645930;212;43311;-73
2022/05/17 08:19:09;;;;;;;2.28;1.67;;;18.40;1.40;;;20.05;100.00;95942.97;650787;212;32351;-73
2022/05/17 08:21:51;;;;;;;2.65;1.80;;;18.30;1.40;;;20.31;100.00;95942.51;638063;222;32070;-74
2022/05/17 08:27:31;;;;;;;2.47;2.17;;;18.90;1.40;;;20.47;100.00;95939.94;647574;212;31804;-73
2022/05/17 08:30:01;;;;;;;2.33;2.00;;;19.00;1.40;;;20.73;100.00;95944.33;648516;216;32325;-74
2022/05/17 08:35:55;;;;;;;2.67;1.90;;;19.10;1.40;;;20.67;100.00;95942.84;620634;226;32037;-74
2022/05/17 08:38:38;;;;;;;1.90;1.80;;;19.20;1.40;;;20.80;100.00;95940.20;647631;216;31582;-74
2022/05/17 08:41:27;;;;;;;3.83;1.70;;;19.00;1.40;;;20.48;100.00;95942.13;645657;216;31512;-77
2022/05/17 08:44:09;;;;;;;2.17;1.67;;;19.00;1.40;;;20.64;100.00;95946.06;648797;216;31529;-76
2022/05/17 08:47:11;;;;;;;3.60;1.40;;;19.50;1.40;;;20.97;100.00;95944.97;619319;222;31878;-77
2022/05/17 08:49:59;;;;;;;1.90;1.80;;;19.70;1.40;;;21.21;100.00;95939.30;653062;215;31901;-77
2022/05/17 08:52:47;;;;;;;4.80;1.90;;;20.00;1.40;;;21.37;100.00;95938.45;648353;212;31518;-76
2022/05/17 08:55:36;;;;;;;1.40;1.02;;;19.70;1.40;;;20.82;100.00;95941.26;649253;216;31653;-77
2022/05/17 08:58:22;;;;;;;1.85;1.55;;;19.20;1.40;;;20.57;100.00;95937.06;645617;216;31577;-76
2022/05/17 09:01:07;;;;;;;2.03;1.67;;;19.00;1.40;;;20.34;100.00;95935.98;649237;216;31519;-77
2022/05/17 09:04:25;;;;;;;2.87;1.75;;;19.00;1.40;;;20.62;100.00;95931.81;618898;225;32066;-77
2022/05/17 09:10:01;;;;;;;4.15;1.80;;;19.20;1.40;;;20.68;100.00;95935.94;635106;216;32385;-78
2022/05/17 09:14:40;;;;;;;2.17;1.67;;;19.50;1.40;;;21.57;100.00;95925.96;645616;216;31580;-76
2022/05/17 09:17:28;;;;;;;3.42;1.83;;;21.60;1.40;;;23.25;100.00;95919.05;618882;226;32020;-77
2022/05/17 09:20:10;;;;;;;2.10;1.70;;;25.20;1.40;;;24.14;89.61;95919.05;647754;216;31625;-76
2022/05/17 09:22:54;;;;;;;1.80;1.50;;;25.90;1.40;;;25.83;88.25;95909.34;646799;212;32125;-76
2022/05/17 09:25:46;;;;;;;1.65;1.33;;;27.40;1.40;;;27.31;79.92;95905.94;647456;216;31516;-77
2022/05/17 09:28:27;;;;;;;1.52;1.33;;;27.50;1.40;;;27.76;69.04;95903.78;646355;216;31666;-77
2022/05/17 09:31:17;;;;;;;2.08;1.60;;;27.20;1.40;;;26.83;73.96;95914.08;646941;216;42341;-77
2022/05/17 09:35:57;;;;;;;1.50;1.23;;;23.90;1.40;;;26.32;70.56;95915.45;647876;212;31661;-77
2022/05/17 09:38:41;;;;;;;3.60;1.60;;;26.10;1.40;;;28.16;69.20;95910.58;646270;216;31579;-77
2022/05/17 09:41:23;;;;;;;2.00;1.50;;;27.60;1.40;;;28.64;60.25;95912.00;648116;216;31705;-76
2022/05/17 09:44:05;;;;;;;2.40;2.20;;;27.90;1.40;;;29.45;64.87;95903.13;646324;216;32101;-77
2022/05/17 09:52:32;;;;;;;1.83;1.40;;;27.20;1.40;;;28.32;60.71;95903.98;646974;216;31610;-77
2022/05/17 09:55:21;;;;;;;2.90;1.75;;;28.10;1.40;;;29.30;55.00;95908.22;647952;216;31538;-77
2022/05/17 09:58:05;;;;;;;1.52;1.30;;;27.60;1.40;;;29.32;54.29;95906.07;646724;216;31557;-76
2022/05/17 10:00:49;;;;;;;1.55;1.33;;;27.80;1.40;;;29.18;52.68;95906.30;646418;212;31664;-77
2022/05/17 10:03:34;;;;;;;2.62;1.35;;;27.00;1.40;;;29.20;52.52;95907.87;647137;216;31565;-76
2022/05/17 10:06:16;;;;;;;1.98;1.20;;;27.40;1.40;;;29.31;50.94;95907.31;646808;215;31526;-76
2022/05/17 10:09:01;;;;;;;1.52;1.42;;;27.40;1.40;;;29.31;48.88;95906.64;646581;212;31539;-76
2022/05/17 10:11:45;;;;;;;3.25;1.30;;;27.30;1.40;;;30.25;48.43;95900.14;619960;226;32202;-76
2022/05/17 10:14:33;;;;;;;2.67;1.42;;;27.90;1.40;;;31.03;49.15;95896.47;646925;216;32299;-76
2022/05/17 10:17:30;;;;;;;1.30;1.20;;;28.20;1.40;;;32.05;44.43;95887.00;646333;215;31720;-76
2022/05/17 10:22:59;;;;;;;1.42;1.20;;;28.20;1.40;;;31.36;44.06;95893.30;646797;216;31706;-76
2022/05/17 10:25:49;;;;;;;1.45;1.30;;;28.50;1.40;;;30.88;43.90;95891.08;618518;226;32652;-76
2022/05/17 10:28:57;;;;;;;1.50;1.30;;;28.10;1.40;;;30.83;44.58;95891.53;647626;216;31529;-76
2022/05/17 10:31:44;;;;;;;1.60;1.50;;;28.20;1.40;;;31.89;42.88;95884.97;646981;216;31581;-76
2022/05/17 10:38:31;;;;;;;1.80;1.20;;;26.30;1.40;;;30.36;45.83;95891.11;647438;216;31654;-76
2022/05/17 10:41:12;;;;;;;1.25;0.98;;;27.50;1.40;;;31.47;41.41;95889.34;646378;216;31542;-77
2022/05/17 10:43:57;;;;;;;1.20;1.10;;;28.10;1.40;;;31.81;40.45;95886.59;647675;216;31614;-76
2022/05/17 10:46:39;;;;;;;3.55;1.30;;;28.40;1.40;;;31.86;39.52;95883.70;648223;216;32065;-77
2022/05/17 10:49:47;;;;;;;0.88;0.88;;;27.90;1.40;;;29.37;44.04;95888.86;645893;216;31830;-76
2022/05/17 10:52:46;;;;;;;1.37;1.10;;;26.10;1.40;;;30.76;42.03;95877.04;645673;212;31518;-79
2022/05/17 10:56:04;;;;;;;1.30;0.90;;;27.50;1.40;;;31.19;44.06;95878.83;647641;216;31567;-77
2022/05/17 10:58:51;;;;;;;1.40;1.17;;;28.10;1.40;;;30.68;43.93;95882.11;647219;216;31781;-75
2022/05/17 11:01:41;;;;;;;1.30;1.20;;;27.60;1.40;;;30.07;42.72;95882.71;648029;216;31912;-75
2022/05/17 11:04:32;;;;;;;1.57;1.17;;;27.30;1.40;;;31.07;41.21;95880.36;646316;216;31668;-76
2022/05/17 11:09:55;;;;;;;1.33;1.10;;;27.70;1.40;;;32.03;39.89;95880.28;646232;212;31660;-76
2022/05/17 11:12:40;;;;;;;1.20;1.10;;;28.10;1.40;;;31.97;39.32;95878.11;647153;216;43305;-76
2022/05/17 11:15:25;;;;;;;1.27;1.17;;;27.00;1.40;;;29.92;41.87;95886.62;618790;226;42563;-75
2022/05/17 11:18:25;;;;;;;1.92;1.30;;;26.40;1.40;;;29.55;41.17;95882.23;647096;216;31987;-76
2022/05/17 11:21:11;;;;;;;2.83;1.40;;;26.70;1.40;;;30.58;41.00;95880.88;646843;215;31769;-76
2022/05/17 11:23:54;;;;;;;1.00;0.90;;;27.20;1.40;;;30.26;40.72;95875.14;647495;216;31708;-76
2022/05/17 11:27:00;;;;;;;3.50;1.10;;;26.30;1.40;;;29.95;42.42;95877.87;647595;216;31599;-77
2022/05/17 11:29:56;;;;;;;2.83;1.37;;;26.10;1.40;;;30.89;42.43;95872.55;646889;216;31536;-76
2022/05/17 11:35:52;;;;;;;2.50;1.20;;;29.30;1.40;;;30.63;42.14;95872.97;647236;216;42405;-76
2022/05/17 11:41:18;;;;;;;2.28;1.50;;;28.00;1.40;;;31.36;41.66;95865.97;647129;216;31628;-75
2022/05/17 11:44:19;;;;;;;1.30;1.20;;;28.10;1.40;;;32.04;39.93;95866.84;647196;216;31600;-76
2022/05/17 11:47:01;;;;;;;1.80;1.25;;;27.80;1.40;;;32.61;39.56;95861.72;620737;225;42651;-76
2022/05/17 11:49:45;;;;;;;1.50;0.95;;;28.10;1.40;;;33.68;36.98;95858.58;647161;212;31574;-76
2022/05/17 11:52:27;;;;;;;2.40;1.10;;;28.00;1.40;;;33.53;38.91;95856.54;647167;216;31542;-76
2022/05/17 11:55:10;;;;;;;1.55;1.35;;;27.60;1.40;;;33.61;39.03;95855.07;641622;214;31624;-76
2022/05/17 11:58:03;;;;;;;1.75;1.17;;;28.10;1.40;;;35.74;38.86;95849.67;647024;212;31566;-76
2022/05/17 12:00:43;;;;;;;1.60;0.95;;;29.30;1.40;;;34.95;34.79;95847.23;647142;212;31691;-76
2022/05/17 12:03:50;;;;;;;1.60;1.15;;;28.30;1.40;;;34.13;35.16;95850.41;647145;216;31744;-76
2022/05/17 12:06:40;;;;;;;1.40;1.10;;;27.90;1.40;;;35.61;36.46;95839.61;646813;212;31643;-76
2022/05/17 12:09:29;;;;;;;2.10;1.00;;;27.40;1.40;;;31.78;38.47;95847.72;644736;213;31586;-77
2022/05/17 12:15:11;;;;;;;1.40;1.00;;;24.60;1.40;;;30.25;43.00;95846.08;647628;216;31568;-76
2022/05/17 12:18:10;;;;;;;1.80;1.35;;;26.80;1.40;;;32.16;39.29;95847.27;619818;225;32002;-77
2022/05/17 12:21:11;;;;;;;1.70;1.30;;;27.20;1.40;;;32.08;38.50;95839.37;646136;216;31567;-76
2022/05/17 12:24:14;;;;;;;1.30;1.20;;;26.50;1.40;;;31.19;39.95;95843.15;646669;212;31618;-74
2022/05/17 12:27:13;;;;;;;2.80;1.20;;;25.80;1.40;;;29.36;41.31;95848.99;646460;216;31647;-75
2022/05/17 12:32:50;;;;;;;1.63;1.53;;;26.30;1.40;;;33.31;39.50;95840.66;648591;216;31656;-74
2022/05/17 12:35:54;;;;;;;2.15;1.40;;;28.10;1.40;;;31.71;40.99;95837.80;647086;212;31610;-74
2022/05/17 12:44:16;;;;;;;1.60;1.20;;;27.20;1.40;;;34.75;38.00;95824.88;646363;216;31756;-74
2022/05/17 12:46:58;;;;;;;2.70;1.62;;;28.60;1.40;;;35.07;35.75;95827.57;620057;226;32126;-74
2022/05/17 12:49:42;;;;;;;3.80;1.80;;;28.10;1.40;;;32.33;39.10;95829.06;647422;212;32130;-74
2022/05/17 12:52:34;;;;;;;1.50;1.40;;;26.20;1.40;;;31.24;39.90;95835.42;646327;212;32210;-74
2022/05/17 12:55:18;;;;;;;1.20;1.10;;;24.90;1.40;;;27.75;46.96;95837.13;645272;216;31512;-73
2022/05/17 12:58:11;;;;;;;2.60;1.30;;;23.70;1.40;;;26.32;53.73;95839.27;646846;216;31607;-73
2022/05/17 13:00:52;;;;;;;1.20;1.10;;;23.00;1.40;;;27.99;50.29;95830.36;647186;216;31482;-74
2022/05/17 13:03:37;;;;;;;3.28;1.20;;;24.90;1.40;;;30.22;43.26;95822.36;636956;217;31704;-73
2022/05/17 13:06:19;;;;;;;1.50;1.40;;;26.10;1.40;;;30.83;40.76;95823.51;646561;212;31520;-73
2022/05/17 13:09:00;;;;;;;1.50;0.93;;;26.20;1.40;;;32.05;39.55;95816.61;646970;216;31717;-73